sensor_id;sensor_type;location;lat;lon;timestamp;pressure;altitude;pressure_sealevel;temperature;humidity
84760;BME280;74983;51.084;11.086;2024-02-04T00:00:23;100457.81;;;8.44;93.86
84760;BME280;74983;51.084;11.086;2024-02-04T00:02:49;100454.97;;;8.48;93.91
84760;BME280;74983;51.084;11.086;2024-02-04T00:05:14;100455.63;;;8.52;93.97
84760;BME280;74983;51.084;11.086;2024-02-04T00:07:39;100457.19;;;8.54;93.93
84760;BME280;74983;51.084;11.086;2024-02-04T00:10:05;100465.59;;;8.59;93.53
84760;BME280;74983;51.084;11.086;2024-02-04T00:12:30;100469.94;;;8.59;94.12
84760;BME280;74983;51.084;11.086;2024-02-04T00:14:55;100464.84;;;8.57;93.72
84760;BME280;74983;51.084;11.086;2024-02-04T00:17:21;100462.34;;;8.56;93.69
84760;BME280;74983;51.084;11.086;2024-02-04T00:19:46;100459.81;;;8.54;93.80
84760;BME280;74983;51.084;11.086;2024-02-04T00:22:11;100456.41;;;8.54;93.93
84760;BME280;74983;51.084;11.086;2024-02-04T00:24:36;100452.84;;;8.55;94.07
84760;BME280;74983;51.084;11.086;2024-02-04T00:27:02;100446.59;;;8.59;93.54
84760;BME280;74983;51.084;11.086;2024-02-04T00:29:27;100433.00;;;8.69;93.71
84760;BME280;74983;51.084;11.086;2024-02-04T00:31:53;100435.25;;;8.75;93.28
84760;BME280;74983;51.084;11.086;2024-02-04T00:34:18;100419.66;;;8.75;93.42
84760;BME280;74983;51.084;11.086;2024-02-04T00:36:43;100419.66;;;8.75;93.15
84760;BME280;74983;51.084;11.086;2024-02-04T00:39:09;100407.50;;;8.76;93.35
84760;BME280;74983;51.084;11.086;2024-02-04T00:41:34;100410.97;;;8.76;92.84
84760;BME280;74983;51.084;11.086;2024-02-04T00:44:00;100415.31;;;8.76;93.44
84760;BME280;74983;51.084;11.086;2024-02-04T00:46:26;100410.03;;;8.77;93.62
84760;BME280;74983;51.084;11.086;2024-02-04T00:48:51;100413.47;;;8.78;93.24
84760;BME280;74983;51.084;11.086;2024-02-04T00:51:16;100406.66;;;8.75;93.07
84760;BME280;74983;51.084;11.086;2024-02-04T00:53:45;100400.47;;;8.78;93.21
84760;BME280;74983;51.084;11.086;2024-02-04T00:56:10;100393.44;;;8.80;92.79
84760;BME280;74983;51.084;11.086;2024-02-04T00:58:36;100393.16;;;8.84;92.48
84760;BME280;74983;51.084;11.086;2024-02-04T01:01:01;100389.81;;;8.82;92.93
84760;BME280;74983;51.084;11.086;2024-02-04T01:03:27;100389.66;;;8.85;92.84
84760;BME280;74983;51.084;11.086;2024-02-04T01:05:53;100374.97;;;8.84;92.30
84760;BME280;74983;51.084;11.086;2024-02-04T01:08:18;100382.16;;;8.95;91.94
84760;BME280;74983;51.084;11.086;2024-02-04T01:10:44;100387.16;;;8.98;91.59
84760;BME280;74983;51.084;11.086;2024-02-04T01:13:09;100383.91;;;8.94;92.59
84760;BME280;74983;51.084;11.086;2024-02-04T01:15:34;100380.22;;;8.98;91.83
84760;BME280;74983;51.084;11.086;2024-02-04T01:17:59;100379.13;;;9.02;91.70
84760;BME280;74983;51.084;11.086;2024-02-04T01:20:25;100371.56;;;8.98;92.03
84760;BME280;74983;51.084;11.086;2024-02-04T01:22:50;100383.66;;;8.99;91.97
84760;BME280;74983;51.084;11.086;2024-02-04T01:25:15;100385.59;;;8.95;91.54
84760;BME280;74983;51.084;11.086;2024-02-04T01:27:40;100380.03;;;9.01;91.37
84760;BME280;74983;51.084;11.086;2024-02-04T01:30:07;100378.38;;;9.00;91.24
84760;BME280;74983;51.084;11.086;2024-02-04T01:32:32;100380.78;;;9.03;91.22
84760;BME280;74983;51.084;11.086;2024-02-04T01:34:57;100384.13;;;9.05;91.09
84760;BME280;74983;51.084;11.086;2024-02-04T01:37:23;100388.94;;;8.97;91.54
84760;BME280;74983;51.084;11.086;2024-02-04T01:39:48;100393.88;;;9.02;91.47
84760;BME280;74983;51.084;11.086;2024-02-04T01:42:13;100394.72;;;9.02;91.31
84760;BME280;74983;51.084;11.086;2024-02-04T01:44:38;100385.81;;;9.06;90.75
84760;BME280;74983;51.084;11.086;2024-02-04T01:47:04;100394.53;;;9.05;91.52
84760;BME280;74983;51.084;11.086;2024-02-04T01:49:29;100384.88;;;9.07;91.74
84760;BME280;74983;51.084;11.086;2024-02-04T01:51:55;100398.22;;;9.01;92.06
84760;BME280;74983;51.084;11.086;2024-02-04T01:54:22;100398.78;;;8.92;93.16
84760;BME280;74983;51.084;11.086;2024-02-04T01:56:52;100391.97;;;8.90;93.44
84760;BME280;74983;51.084;11.086;2024-02-04T01:59:19;100398.09;;;8.89;94.26
84760;BME280;74983;51.084;11.086;2024-02-04T02:01:45;100398.34;;;8.84;94.65
84760;BME280;74983;51.084;11.086;2024-02-04T02:04:11;100389.56;;;8.87;94.24
84760;BME280;74983;51.084;11.086;2024-02-04T02:06:38;100379.69;;;8.78;94.42
84760;BME280;74983;51.084;11.086;2024-02-04T02:09:07;100390.78;;;8.66;94.98
84760;BME280;74983;51.084;11.086;2024-02-04T02:11:45;100389.56;;;8.57;95.57
84760;BME280;74983;51.084;11.086;2024-02-04T02:14:14;100390.88;;;8.64;95.71
84760;BME280;74983;51.084;11.086;2024-02-04T02:16:40;100395.16;;;8.65;95.52
84760;BME280;74983;51.084;11.086;2024-02-04T02:19:26;100399.50;;;8.65;95.42
84760;BME280;74983;51.084;11.086;2024-02-04T02:22:02;100410.53;;;8.68;95.08
84760;BME280;74983;51.084;11.086;2024-02-04T02:24:39;100411.66;;;8.64;96.21
84760;BME280;74983;51.084;11.086;2024-02-04T02:27:07;100395.41;;;8.61;96.13
84760;BME280;74983;51.084;11.086;2024-02-04T02:29:32;100397.44;;;8.56;96.90
84760;BME280;74983;51.084;11.086;2024-02-04T02:31:58;100412.94;;;8.42;97.04
84760;BME280;74983;51.084;11.086;2024-02-04T02:34:24;100401.22;;;8.35;96.98
84760;BME280;74983;51.084;11.086;2024-02-04T02:39:34;100395.00;;;8.22;97.21
84760;BME280;74983;51.084;11.086;2024-02-04T02:42:04;100399.44;;;8.20;97.19
84760;BME280;74983;51.084;11.086;2024-02-04T02:44:30;100398.69;;;8.18;97.70
84760;BME280;74983;51.084;11.086;2024-02-04T02:46:57;100402.41;;;8.29;97.30
84760;BME280;74983;51.084;11.086;2024-02-04T02:49:22;100386.66;;;8.32;97.09
84760;BME280;74983;51.084;11.086;2024-02-04T02:51:47;100376.19;;;8.34;96.87
84760;BME280;74983;51.084;11.086;2024-02-04T02:54:13;100370.25;;;8.32;96.41
84760;BME280;74983;51.084;11.086;2024-02-04T02:56:38;100370.31;;;8.15;96.21
84760;BME280;74983;51.084;11.086;2024-02-04T02:59:03;100363.38;;;7.99;96.84
84760;BME280;74983;51.084;11.086;2024-02-04T03:01:30;100366.66;;;7.87;96.88
84760;BME280;74983;51.084;11.086;2024-02-04T03:03:55;100359.94;;;7.83;95.88
84760;BME280;74983;51.084;11.086;2024-02-04T03:06:20;100366.28;;;7.78;97.32
84760;BME280;74983;51.084;11.086;2024-02-04T03:08:45;100364.28;;;7.83;98.00
84760;BME280;74983;51.084;11.086;2024-02-04T03:11:11;100360.72;;;8.01;98.04
84760;BME280;74983;51.084;11.086;2024-02-04T03:13:39;100354.84;;;8.13;96.97
84760;BME280;74983;51.084;11.086;2024-02-04T03:16:09;100354.19;;;8.25;96.68
84760;BME280;74983;51.084;11.086;2024-02-04T03:18:35;100362.41;;;8.33;96.82
84760;BME280;74983;51.084;11.086;2024-02-04T03:21:00;100363.72;;;8.40;95.79
84760;BME280;74983;51.084;11.086;2024-02-04T03:23:25;100358.94;;;8.48;95.37
84760;BME280;74983;51.084;11.086;2024-02-04T03:25:50;100362.94;;;8.54;95.09
84760;BME280;74983;51.084;11.086;2024-02-04T03:28:16;100359.16;;;8.59;94.50
84760;BME280;74983;51.084;11.086;2024-02-04T03:30:41;100355.09;;;8.69;93.99
84760;BME280;74983;51.084;11.086;2024-02-04T03:33:06;100348.06;;;8.71;93.80
84760;BME280;74983;51.084;11.086;2024-02-04T03:35:31;100348.72;;;8.75;93.48
84760;BME280;74983;51.084;11.086;2024-02-04T03:37:56;100348.34;;;8.81;93.63
84760;BME280;74983;51.084;11.086;2024-02-04T03:40:22;100341.59;;;8.78;93.57
84760;BME280;74983;51.084;11.086;2024-02-04T03:42:49;100337.31;;;8.77;93.64
84760;BME280;74983;51.084;11.086;2024-02-04T03:45:14;100342.31;;;8.80;93.11
84760;BME280;74983;51.084;11.086;2024-02-04T03:47:40;100332.59;;;8.84;93.15
84760;BME280;74983;51.084;11.086;2024-02-04T03:50:05;100330.75;;;8.86;92.75
84760;BME280;74983;51.084;11.086;2024-02-04T03:52:31;100324.47;;;9.04;92.03
84760;BME280;74983;51.084;11.086;2024-02-04T03:54:56;100323.06;;;9.13;91.29
84760;BME280;74983;51.084;11.086;2024-02-04T03:57:22;100319.19;;;9.20;91.38
84760;BME280;74983;51.084;11.086;2024-02-04T03:59:47;100317.34;;;9.22;90.84
84760;BME280;74983;51.084;11.086;2024-02-04T04:02:12;100319.84;;;9.23;91.01
84760;BME280;74983;51.084;11.086;2024-02-04T04:04:40;100314.84;;;9.20;91.00
84760;BME280;74983;51.084;11.086;2024-02-04T04:07:06;100324.28;;;9.21;90.64
84760;BME280;74983;51.084;11.086;2024-02-04T04:09:31;100315.38;;;9.25;90.83
84760;BME280;74983;51.084;11.086;2024-02-04T04:11:56;100319.84;;;9.23;91.12
84760;BME280;74983;51.084;11.086;2024-02-04T04:14:22;100323.94;;;9.27;90.50
84760;BME280;74983;51.084;11.086;2024-02-04T04:16:47;100314.44;;;9.26;90.79
84760;BME280;74983;51.084;11.086;2024-02-04T04:19:12;100320.59;;;9.25;91.22
84760;BME280;74983;51.084;11.086;2024-02-04T04:21:38;100312.41;;;9.31;90.75
84760;BME280;74983;51.084;11.086;2024-02-04T04:24:03;100320.38;;;9.28;91.07
84760;BME280;74983;51.084;11.086;2024-02-04T04:26:29;100314.72;;;9.36;89.74
84760;BME280;74983;51.084;11.086;2024-02-04T04:28:54;100316.59;;;9.34;90.17
84760;BME280;74983;51.084;11.086;2024-02-04T04:31:19;100323.53;;;9.33;90.92
84760;BME280;74983;51.084;11.086;2024-02-04T04:33:45;100328.47;;;9.38;90.27
84760;BME280;74983;51.084;11.086;2024-02-04T04:36:10;100322.63;;;9.34;90.55
84760;BME280;74983;51.084;11.086;2024-02-04T04:38:35;100314.28;;;9.29;91.13
84760;BME280;74983;51.084;11.086;2024-02-04T04:41:00;100302.94;;;9.30;90.69
84760;BME280;74983;51.084;11.086;2024-02-04T04:43:26;100309.72;;;9.33;90.98
84760;BME280;74983;51.084;11.086;2024-02-04T04:45:52;100314.19;;;9.31;90.64
84760;BME280;74983;51.084;11.086;2024-02-04T04:48:17;100309.25;;;9.26;90.73
84760;BME280;74983;51.084;11.086;2024-02-04T04:50:42;100306.53;;;9.28;90.58
84760;BME280;74983;51.084;11.086;2024-02-04T04:53:07;100314.72;;;9.36;90.71
84760;BME280;74983;51.084;11.086;2024-02-04T04:55:32;100312.31;;;9.33;90.70
84760;BME280;74983;51.084;11.086;2024-02-04T04:57:58;100304.34;;;9.36;90.51
84760;BME280;74983;51.084;11.086;2024-02-04T05:00:23;100302.47;;;9.38;90.46
84760;BME280;74983;51.084;11.086;2024-02-04T05:02:48;100298.50;;;9.32;90.89
84760;BME280;74983;51.084;11.086;2024-02-04T05:05:13;100297.38;;;9.36;90.23
84760;BME280;74983;51.084;11.086;2024-02-04T05:07:39;100301.63;;;9.37;90.54
84760;BME280;74983;51.084;11.086;2024-02-04T05:10:05;100300.34;;;9.30;90.71
84760;BME280;74983;51.084;11.086;2024-02-04T05:12:32;100299.34;;;9.33;91.10
84760;BME280;74983;51.084;11.086;2024-02-04T05:14:57;100298.69;;;9.29;90.88
84760;BME280;74983;51.084;11.086;2024-02-04T05:17:23;100293.38;;;9.31;90.02
84760;BME280;74983;51.084;11.086;2024-02-04T05:19:48;100288.19;;;9.31;91.07
84760;BME280;74983;51.084;11.086;2024-02-04T05:22:13;100288.09;;;9.32;90.58
84760;BME280;74983;51.084;11.086;2024-02-04T05:24:38;100290.31;;;9.38;90.31
84760;BME280;74983;51.084;11.086;2024-02-04T05:27:04;100284.56;;;9.33;90.52
84760;BME280;74983;51.084;11.086;2024-02-04T05:29:30;100278.44;;;9.34;90.64
84760;BME280;74983;51.084;11.086;2024-02-04T05:31:56;100272.50;;;9.32;90.78
84760;BME280;74983;51.084;11.086;2024-02-04T05:34:21;100268.59;;;9.25;91.24
84760;BME280;74983;51.084;11.086;2024-02-04T05:36:46;100274.44;;;9.29;91.21
84760;BME280;74983;51.084;11.086;2024-02-04T05:39:12;100271.31;;;9.24;91.37
84760;BME280;74983;51.084;11.086;2024-02-04T05:41:39;100265.16;;;9.25;91.21
84760;BME280;74983;51.084;11.086;2024-02-04T05:44:04;100258.13;;;9.27;91.13
84760;BME280;74983;51.084;11.086;2024-02-04T05:46:30;100264.81;;;9.31;90.70
84760;BME280;74983;51.084;11.086;2024-02-04T05:48:55;100278.53;;;9.33;90.19
84760;BME280;74983;51.084;11.086;2024-02-04T05:51:22;100280.94;;;9.36;90.05
84760;BME280;74983;51.084;11.086;2024-02-04T05:53:47;100282.50;;;9.38;90.11
84760;BME280;74983;51.084;11.086;2024-02-04T05:56:12;100279.19;;;9.36;89.59
84760;BME280;74983;51.084;11.086;2024-02-04T05:58:37;100269.50;;;9.38;89.84
84760;BME280;74983;51.084;11.086;2024-02-04T06:01:03;100263.28;;;9.41;89.37
84760;BME280;74983;51.084;11.086;2024-02-04T06:03:28;100265.78;;;9.42;89.16
84760;BME280;74983;51.084;11.086;2024-02-04T06:05:53;100262.44;;;9.40;89.49
84760;BME280;74983;51.084;11.086;2024-02-04T06:08:18;100278.88;;;9.41;89.46
84760;BME280;74983;51.084;11.086;2024-02-04T06:10:44;100275.09;;;9.46;88.98
84760;BME280;74983;51.084;11.086;2024-02-04T06:13:09;100255.41;;;9.42;89.63
84760;BME280;74983;51.084;11.086;2024-02-04T06:15:34;100252.50;;;9.47;89.26
84760;BME280;74983;51.084;11.086;2024-02-04T06:18:01;100264.94;;;9.42;89.76
84760;BME280;74983;51.084;11.086;2024-02-04T06:20:26;100266.53;;;9.44;89.28
84760;BME280;74983;51.084;11.086;2024-02-04T06:22:51;100276.19;;;9.42;89.17
84760;BME280;74983;51.084;11.086;2024-02-04T06:25:16;100271.00;;;9.42;89.91
84760;BME280;74983;51.084;11.086;2024-02-04T06:27:42;100268.28;;;9.44;89.56
84760;BME280;74983;51.084;11.086;2024-02-04T06:30:07;100270.03;;;9.43;89.81
84760;BME280;74983;51.084;11.086;2024-02-04T06:32:33;100266.53;;;9.44;90.01
84760;BME280;74983;51.084;11.086;2024-02-04T06:34:58;100267.56;;;9.42;90.00
84760;BME280;74983;51.084;11.086;2024-02-04T06:37:23;100271.47;;;9.35;90.96
84760;BME280;74983;51.084;11.086;2024-02-04T06:39:48;100274.59;;;9.40;89.97
84760;BME280;74983;51.084;11.086;2024-02-04T06:42:14;100272.84;;;9.40;90.46
84760;BME280;74983;51.084;11.086;2024-02-04T06:44:43;100274.59;;;9.40;90.23
84760;BME280;74983;51.084;11.086;2024-02-04T06:47:08;100264.03;;;9.43;89.88
84760;BME280;74983;51.084;11.086;2024-02-04T06:49:34;100270.03;;;9.43;90.24
84760;BME280;74983;51.084;11.086;2024-02-04T06:51:59;100260.91;;;9.38;90.17
84760;BME280;74983;51.084;11.086;2024-02-04T06:54:24;100261.53;;;9.41;90.22
84760;BME280;74983;51.084;11.086;2024-02-04T06:56:51;100267.56;;;9.42;90.12
84760;BME280;74983;51.084;11.086;2024-02-04T06:59:16;100279.91;;;9.38;90.89
84760;BME280;74983;51.084;11.086;2024-02-04T07:01:42;100277.94;;;9.42;90.51
84760;BME280;74983;51.084;11.086;2024-02-04T07:04:07;100261.69;;;9.38;90.32
84760;BME280;74983;51.084;11.086;2024-02-04T07:06:32;100259.00;;;9.40;89.72
84760;BME280;74983;51.084;11.086;2024-02-04T07:08:58;100265.59;;;9.45;89.49
84760;BME280;74983;51.084;11.086;2024-02-04T07:11:24;100267.81;;;9.51;89.41
84760;BME280;74983;51.084;11.086;2024-02-04T07:13:49;100267.81;;;9.51;89.30
84760;BME280;74983;51.084;11.086;2024-02-04T07:16:14;100265.59;;;9.45;89.49
84760;BME280;74983;51.084;11.086;2024-02-04T07:18:39;100285.38;;;9.48;89.39
84760;BME280;74983;51.084;11.086;2024-02-04T07:21:05;100286.22;;;9.48;89.65
84760;BME280;74983;51.084;11.086;2024-02-04T07:23:30;100292.63;;;9.43;90.02
84760;BME280;74983;51.084;11.086;2024-02-04T07:25:55;100276.50;;;9.38;89.99
84760;BME280;74983;51.084;11.086;2024-02-04T07:28:20;100277.78;;;9.45;89.36
84760;BME280;74983;51.084;11.086;2024-02-04T07:30:46;100267.19;;;9.48;89.42
84760;BME280;74983;51.084;11.086;2024-02-04T07:33:11;100281.66;;;9.52;89.09
84760;BME280;74983;51.084;11.086;2024-02-04T07:35:36;100273.47;;;9.58;88.94
84760;BME280;74983;51.084;11.086;2024-02-04T07:38:01;100266.31;;;9.61;88.32
84760;BME280;74983;51.084;11.086;2024-02-04T07:40:27;100265.47;;;9.61;88.69
84760;BME280;74983;51.084;11.086;2024-02-04T07:42:53;100274.13;;;9.61;88.56
84760;BME280;74983;51.084;11.086;2024-02-04T07:45:18;100256.13;;;9.58;88.77
84760;BME280;74983;51.084;11.086;2024-02-04T07:47:44;100243.75;;;9.62;89.10
84760;BME280;74983;51.084;11.086;2024-02-04T07:50:09;100239.56;;;9.59;88.81
84760;BME280;74983;51.084;11.086;2024-02-04T07:52:34;100237.81;;;9.60;88.51
84760;BME280;74983;51.084;11.086;2024-02-04T07:54:59;100247.25;;;9.61;88.75
84760;BME280;74983;51.084;11.086;2024-02-04T07:57:25;100261.56;;;9.68;88.55
84760;BME280;74983;51.084;11.086;2024-02-04T07:59:50;100255.13;;;9.73;88.19
84760;BME280;74983;51.084;11.086;2024-02-04T08:02:16;100267.75;;;9.79;88.25
84760;BME280;74983;51.084;11.086;2024-02-04T08:04:41;100268.31;;;9.84;87.74
84760;BME280;74983;51.084;11.086;2024-02-04T08:07:06;100258.53;;;9.88;88.56
84760;BME280;74983;51.084;11.086;2024-02-04T08:09:32;100245.63;;;9.86;88.13
84760;BME280;74983;51.084;11.086;2024-02-04T08:11:57;100245.53;;;9.88;88.02
84760;BME280;74983;51.084;11.086;2024-02-04T08:14:22;100244.69;;;9.87;87.76
84760;BME280;74983;51.084;11.086;2024-02-04T08:16:48;100231.13;;;9.82;88.07
84760;BME280;74983;51.084;11.086;2024-02-04T08:19:13;100233.19;;;9.77;88.50
84760;BME280;74983;51.084;11.086;2024-02-04T08:21:39;100224.88;;;9.72;88.80
84760;BME280;74983;51.084;11.086;2024-02-04T08:24:04;100228.00;;;9.77;88.50
84760;BME280;74983;51.084;11.086;2024-02-04T08:26:29;100225.50;;;9.76;89.17
84760;BME280;74983;51.084;11.086;2024-02-04T08:28:55;100228.28;;;9.73;89.15
84760;BME280;74983;51.084;11.086;2024-02-04T08:31:20;100224.13;;;9.70;89.01
84760;BME280;74983;51.084;11.086;2024-02-04T08:33:46;100219.34;;;9.77;89.15
84760;BME280;74983;51.084;11.086;2024-02-04T08:36:11;100211.44;;;9.78;88.80
84760;BME280;74983;51.084;11.086;2024-02-04T08:38:37;100207.00;;;9.80;89.12
84760;BME280;74983;51.084;11.086;2024-02-04T08:41:03;100213.34;;;9.89;88.24
84760;BME280;74983;51.084;11.086;2024-02-04T08:43:28;100218.47;;;9.90;89.23
84760;BME280;74983;51.084;11.086;2024-02-04T08:45:54;100221.63;;;9.95;88.76
84760;BME280;74983;51.084;11.086;2024-02-04T08:48:19;100227.63;;;9.96;88.75
84760;BME280;74983;51.084;11.086;2024-02-04T08:50:44;100230.59;;;10.04;89.49
84760;BME280;74983;51.084;11.086;2024-02-04T08:53:09;100222.06;;;10.02;88.48
84760;BME280;74983;51.084;11.086;2024-02-04T08:55:35;100210.28;;;9.96;88.01
84760;BME280;74983;51.084;11.086;2024-02-04T08:58:00;100207.66;;;9.96;87.78
84760;BME280;74983;51.084;11.086;2024-02-04T09:00:25;100207.34;;;10.01;87.18
84760;BME280;74983;51.084;11.086;2024-02-04T09:02:50;100207.75;;;10.09;86.59
84760;BME280;74983;51.084;11.086;2024-02-04T09:05:16;100210.22;;;10.10;86.59
84760;BME280;74983;51.084;11.086;2024-02-04T09:07:41;100196.72;;;10.18;85.85
84760;BME280;74983;51.084;11.086;2024-02-04T09:10:07;100191.09;;;10.24;85.89
84760;BME280;74983;51.084;11.086;2024-02-04T09:12:32;100184.75;;;10.28;84.54
84760;BME280;74983;51.084;11.086;2024-02-04T09:14:57;100184.44;;;10.33;84.46
84760;BME280;74983;51.084;11.086;2024-02-04T09:17:23;100186.75;;;10.37;85.03
84760;BME280;74983;51.084;11.086;2024-02-04T09:19:48;100176.00;;;10.42;84.66
84760;BME280;74983;51.084;11.086;2024-02-04T09:22:14;100188.53;;;10.49;83.75
84760;BME280;74983;51.084;11.086;2024-02-04T09:24:39;100189.03;;;10.54;83.08
84760;BME280;74983;51.084;11.086;2024-02-04T09:27:04;100182.38;;;10.63;83.19
84760;BME280;74983;51.084;11.086;2024-02-04T09:29:29;100191.66;;;10.67;83.88
84760;BME280;74983;51.084;11.086;2024-02-04T09:31:55;100189.84;;;10.67;83.35
84760;BME280;74983;51.084;11.086;2024-02-04T09:34:20;100182.25;;;10.64;82.31
84760;BME280;74983;51.084;11.086;2024-02-04T09:36:46;100168.22;;;10.67;81.66
84760;BME280;74983;51.084;11.086;2024-02-04T09:39:11;100172.97;;;10.73;81.45
84760;BME280;74983;51.084;11.086;2024-02-04T09:41:37;100181.75;;;10.72;81.33
84760;BME280;74983;51.084;11.086;2024-02-04T09:44:02;100182.03;;;10.67;80.23
84760;BME280;74983;51.084;11.086;2024-02-04T09:46:29;100181.53;;;10.75;79.76
84760;BME280;74983;51.084;11.086;2024-02-04T09:48:55;100176.81;;;10.80;80.14
84760;BME280;74983;51.084;11.086;2024-02-04T09:51:21;100179.94;;;10.85;79.49
84760;BME280;74983;51.084;11.086;2024-02-04T09:53:51;100176.59;;;10.83;80.18
84760;BME280;74983;51.084;11.086;2024-02-04T09:56:17;100175.38;;;10.76;80.24
84760;BME280;74983;51.084;11.086;2024-02-04T09:58:43;100178.81;;;10.76;80.23
84760;BME280;74983;51.084;11.086;2024-02-04T10:01:08;100179.03;;;10.73;80.46
84760;BME280;74983;51.084;11.086;2024-02-04T10:03:36;100181.31;;;10.78;80.52
84760;BME280;74983;51.084;11.086;2024-02-04T10:06:01;100180.78;;;10.85;79.39
84760;BME280;74983;51.084;11.086;2024-02-04T10:08:27;100176.31;;;10.87;79.50
84760;BME280;74983;51.084;11.086;2024-02-04T10:10:52;100164.00;;;10.89;80.22
84760;BME280;74983;51.084;11.086;2024-02-04T10:13:19;100170.75;;;10.92;79.21
84760;BME280;74983;51.084;11.086;2024-02-04T10:15:46;100166.06;;;10.97;80.00
84760;BME280;74983;51.084;11.086;2024-02-04T10:18:11;100155.25;;;10.90;80.68
84760;BME280;74983;51.084;11.086;2024-02-04T10:20:37;100162.53;;;10.98;80.21
84760;BME280;74983;51.084;11.086;2024-02-04T10:23:03;100158.03;;;11.00;81.73
84760;BME280;74983;51.084;11.086;2024-02-04T10:25:28;100165.38;;;10.82;82.06
84760;BME280;74983;51.084;11.086;2024-02-04T10:27:54;100159.94;;;10.85;82.44
84760;BME280;74983;51.084;11.086;2024-02-04T10:30:20;100158.28;;;10.84;81.16
84760;BME280;74983;51.084;11.086;2024-02-04T10:32:53;100160.34;;;10.79;81.80
84760;BME280;74983;51.084;11.086;2024-02-04T10:35:22;100153.09;;;10.72;82.53
84760;BME280;74983;51.084;11.086;2024-02-04T10:37:49;100153.19;;;10.70;82.79
84760;BME280;74983;51.084;11.086;2024-02-04T10:40:14;100123.25;;;10.76;81.88
84760;BME280;74983;51.084;11.086;2024-02-04T10:42:42;100132.22;;;10.84;82.13
84760;BME280;74983;51.084;11.086;2024-02-04T10:45:08;100136.16;;;10.90;82.18
84760;BME280;74983;51.084;11.086;2024-02-04T10:47:37;100142.22;;;10.90;82.92
84760;BME280;74983;51.084;11.086;2024-02-04T10:50:03;100135.00;;;10.94;83.79
84760;BME280;74983;51.084;11.086;2024-02-04T10:52:35;100132.19;;;10.97;83.63
84760;BME280;74983;51.084;11.086;2024-02-04T10:55:02;100142.91;;;11.05;83.85
84760;BME280;74983;51.084;11.086;2024-02-04T10:57:28;100131.97;;;11.00;83.59
84760;BME280;74983;51.084;11.086;2024-02-04T10:59:56;100116.00;;;11.04;84.00
84760;BME280;74983;51.084;11.086;2024-02-04T11:02:22;100123.22;;;11.01;83.90
84760;BME280;74983;51.084;11.086;2024-02-04T11:04:48;100120.19;;;11.07;84.38
84760;BME280;74983;51.084;11.086;2024-02-04T11:07:14;100123.41;;;11.10;83.66
84760;BME280;74983;51.084;11.086;2024-02-04T11:09:40;100114.63;;;11.11;83.73
84760;BME280;74983;51.084;11.086;2024-02-04T11:12:11;100102.22;;;11.15;83.58
84760;BME280;74983;51.084;11.086;2024-02-04T11:14:41;100097.00;;;11.15;83.61
84760;BME280;74983;51.084;11.086;2024-02-04T11:23:08;100111.69;;;11.16;84.35
84760;BME280;74983;51.084;11.086;2024-02-04T11:25:46;100100.72;;;11.23;83.00
84760;BME280;74983;51.084;11.086;2024-02-04T11:28:13;100110.56;;;11.07;83.75
84760;BME280;74983;51.084;11.086;2024-02-04T11:30:40;100111.94;;;11.00;83.23
84760;BME280;74983;51.084;11.086;2024-02-04T11:33:10;100126.22;;;10.95;84.71
84760;BME280;74983;51.084;11.086;2024-02-04T11:35:36;100120.41;;;10.91;84.88
84760;BME280;74983;51.084;11.086;2024-02-04T11:38:05;100125.44;;;10.82;85.05
84760;BME280;74983;51.084;11.086;2024-02-04T11:40:33;100126.28;;;10.82;85.00
84760;BME280;74983;51.084;11.086;2024-02-04T11:43:12;100121.38;;;10.78;85.23
84760;BME280;74983;51.084;11.086;2024-02-04T11:45:43;100122.63;;;10.72;85.73
84760;BME280;74983;51.084;11.086;2024-02-04T11:48:09;100133.63;;;10.65;86.13
84760;BME280;74983;51.084;11.086;2024-02-04T11:50:35;100118.19;;;10.62;86.51
84760;BME280;74983;51.084;11.086;2024-02-04T11:53:09;100117.97;;;10.65;86.06
84760;BME280;74983;51.084;11.086;2024-02-04T11:55:35;100108.28;;;10.67;86.09
84760;BME280;74983;51.084;11.086;2024-02-04T11:58:01;100114.94;;;10.71;84.44
84760;BME280;74983;51.084;11.086;2024-02-04T12:00:26;100110.97;;;10.78;85.05
84760;BME280;74983;51.084;11.086;2024-02-04T12:03:06;100119.41;;;10.81;84.98
84760;BME280;74983;51.084;11.086;2024-02-04T12:05:33;100114.28;;;10.80;84.40
84760;BME280;74983;51.084;11.086;2024-02-04T12:08:01;100111.81;;;10.78;83.67
84760;BME280;74983;51.084;11.086;2024-02-04T12:10:26;100101.50;;;10.77;84.99
84760;BME280;74983;51.084;11.086;2024-02-04T12:12:52;100099.41;;;10.82;83.03
84760;BME280;74983;51.084;11.086;2024-02-04T12:15:17;100091.25;;;10.86;83.40
84760;BME280;74983;51.084;11.086;2024-02-04T12:17:42;100089.25;;;10.90;83.14
84760;BME280;74983;51.084;11.086;2024-02-04T12:20:08;100085.38;;;10.95;83.97
84760;BME280;74983;51.084;11.086;2024-02-04T12:22:33;100071.59;;;11.06;83.22
84760;BME280;74983;51.084;11.086;2024-02-04T12:24:59;100073.75;;;11.12;82.07
84760;BME280;74983;51.084;11.086;2024-02-04T12:27:26;100070.38;;;11.22;81.67
84760;BME280;74983;51.084;11.086;2024-02-04T12:29:52;100068.09;;;11.18;80.68
84760;BME280;74983;51.084;11.086;2024-02-04T12:32:17;100065.00;;;11.13;80.38
84760;BME280;74983;51.084;11.086;2024-02-04T12:34:47;100054.69;;;11.11;81.65
84760;BME280;74983;51.084;11.086;2024-02-04T12:37:12;100058.13;;;11.12;81.43
84760;BME280;74983;51.084;11.086;2024-02-04T12:39:38;100053.28;;;11.18;82.28
84760;BME280;74983;51.084;11.086;2024-02-04T12:42:03;100051.22;;;11.34;80.78
84760;BME280;74983;51.084;11.086;2024-02-04T12:44:29;100051.13;;;11.36;80.58
84760;BME280;74983;51.084;11.086;2024-02-04T12:46:55;100040.94;;;11.44;79.32
84760;BME280;74983;51.084;11.086;2024-02-04T12:49:21;100050.44;;;11.45;80.82